createdAt,value
2022-09-07T00:02:02.290Z,21.65688
2022-09-07T00:07:08.372Z,21.79707
2022-09-07T00:12:09.457Z,21.914
2022-09-07T00:17:10.899Z,22.11166
2022-09-07T00:22:11.821Z,22.06927
2022-09-07T00:27:12.884Z,21.95564
2022-09-07T00:32:13.883Z,21.96007
2022-09-07T00:37:14.901Z,21.9611
2022-09-07T00:42:15.956Z,21.89737
2022-09-07T00:47:17.077Z,21.98884
2022-09-07T00:52:18.073Z,22.02114
2022-09-07T00:57:19.007Z,22.00427
2022-09-07T01:02:20.161Z,22.10071
2022-09-07T01:07:21.247Z,22.18847
2022-09-07T01:12:22.204Z,22.27022
2022-09-07T01:17:23.113Z,22.29737
2022-09-07T01:22:24.183Z,22.41445
2022-09-07T01:27:25.119Z,22.47944
2022-09-07T01:32:26.152Z,22.49987
2022-09-07T01:37:27.065Z,22.60357
2022-09-07T01:42:27.955Z,22.57393
2022-09-07T01:52:29.327Z,22.38276
2022-09-07T01:57:30.292Z,22.5923
2022-09-07T02:02:31.580Z,22.79393
2022-09-07T02:07:32.878Z,22.83456
2022-09-07T02:12:33.929Z,22.92244
2022-09-07T02:17:36.002Z,22.73745
2022-09-07T02:22:40.772Z,22.3643
2022-09-07T02:27:42.320Z,22.239
2022-09-07T02:42:47.045Z,21.90159
2022-09-07T02:52:54.314Z,22.18208
2022-09-07T02:57:56.144Z,22.28295
2022-09-07T03:02:57.484Z,22.55571
2022-09-07T03:07:58.907Z,22.88903
2022-09-07T03:12:59.989Z,23.14031
2022-09-07T03:23:01.634Z,23.18595
2022-09-07T03:28:02.860Z,23.36847
2022-09-07T03:33:04.278Z,23.55358
2022-09-07T03:38:06.334Z,23.75572
2022-09-07T03:43:09.585Z,23.9503
2022-09-07T03:48:10.977Z,24.09792
2022-09-07T03:53:11.861Z,24.23857
2022-09-07T03:58:12.975Z,24.52
2022-09-07T04:03:14.174Z,24.61795
2022-09-07T04:08:15.140Z,24.72368
2022-09-07T04:13:16.163Z,24.82826
2022-09-07T04:18:17.080Z,24.85777
2022-09-07T04:23:18.080Z,24.91201
2022-09-07T04:28:19.161Z,24.94793
2022-09-07T04:33:20.090Z,24.96585
2022-09-07T04:38:20.990Z,24.9996
2022-09-07T04:43:22.788Z,24.92572
2022-09-07T04:48:23.946Z,25.06341
2022-09-07T04:53:25.029Z,25.05803
2022-09-07T04:58:26.114Z,25.24148
2022-09-07T05:03:27.115Z,25.27654
2022-09-07T05:08:28.110Z,25.27858
2022-09-07T05:13:29.210Z,25.26073
2022-09-07T05:18:30.307Z,25.31558
2022-09-07T05:23:31.365Z,25.4051
2022-09-07T05:28:32.818Z,25.37959
2022-09-07T05:39:04.987Z,25.4444
2022-09-07T05:49:42.302Z,25.48151
2022-09-07T05:54:43.352Z,25.45223
2022-09-07T05:59:44.345Z,25.37807
2022-09-07T06:04:45.378Z,25.33319
2022-09-07T06:15:17.381Z,25.2285
2022-09-07T06:20:18.785Z,25.13404
2022-09-07T06:25:19.705Z,25.01791
2022-09-07T06:30:20.732Z,25.06018
2022-09-07T06:35:21.639Z,24.87575
2022-09-07T06:40:27.606Z,24.7906
2022-09-07T06:45:28.631Z,24.74835
2022-09-07T06:50:29.689Z,24.8078
2022-09-07T06:55:30.735Z,24.86207
2022-09-07T07:00:31.656Z,24.7116
2022-09-07T07:05:32.600Z,24.18152
2022-09-07T07:10:33.673Z,24.50013
2022-09-07T07:15:34.683Z,24.53231
2022-09-07T07:20:35.817Z,24.37505
2022-09-07T07:25:36.768Z,24.29667
2022-09-07T07:30:37.830Z,24.2776
2022-09-07T07:35:38.901Z,23.84893
2022-09-07T07:40:40.827Z,23.44274
2022-09-07T07:45:56.565Z,23.41324
2022-09-07T07:50:57.860Z,23.34991
2022-09-07T07:55:58.917Z,23.48651
2022-09-07T08:01:00.069Z,23.37144
2022-09-07T08:06:01.689Z,22.93669
2022-09-07T08:11:02.676Z,22.88456
2022-09-07T08:16:03.836Z,22.9539
2022-09-07T08:21:05.128Z,23.00823
2022-09-07T08:26:06.325Z,22.91718
2022-09-07T08:31:22.619Z,22.73158
2022-09-07T08:36:23.893Z,22.48871
2022-09-07T08:41:28.400Z,22.54349
2022-09-07T08:51:29.937Z,22.13988
2022-09-07T08:56:33.886Z,22.10298
2022-09-07T09:01:37.453Z,21.57134
2022-09-07T09:06:38.934Z,20.58869
2022-09-07T09:11:41.310Z,19.06604
2022-09-07T09:26:43.629Z,18.06781
2022-09-07T09:31:45.002Z,19.04422
2022-09-07T09:41:54.814Z,19.09504
2022-09-07T09:52:29.684Z,14.97747
2022-09-07T10:08:08.709Z,17.49048
2022-09-07T10:18:27.893Z,18.20586
2022-09-07T10:38:33.048Z,20.07694
2022-09-07T10:48:34.485Z,20.53356
2022-09-07T10:59:02.022Z,20.78493
2022-09-07T11:09:18.515Z,21.03137
2022-09-07T11:14:20.448Z,21.22666
2022-09-07T11:19:37.497Z,21.19969
2022-09-07T11:25:30.557Z,21.35655
2022-09-07T11:30:31.620Z,21.31195
2022-09-07T11:35:32.541Z,21.45944
2022-09-07T11:40:33.558Z,21.82392
2022-09-07T11:45:34.620Z,21.87774
2022-09-07T11:50:35.612Z,22.01574
2022-09-07T11:55:36.754Z,22.25724
2022-09-07T12:00:37.795Z,22.34406
2022-09-07T12:05:38.727Z,22.48736
2022-09-07T12:10:39.942Z,22.41375
2022-09-07T12:15:40.943Z,22.46471
2022-09-07T12:20:42.009Z,22.34336
2022-09-07T12:25:43.125Z,22.34035
2022-09-07T12:30:44.209Z,22.13799
2022-09-07T12:35:45.334Z,22.17639
2022-09-07T12:40:46.492Z,22.26327
2022-09-07T12:45:47.496Z,22.10206
2022-09-07T12:56:17.446Z,21.78962
2022-09-07T13:16:20.316Z,21.7066
2022-09-07T13:21:21.858Z,21.53708
2022-09-07T13:26:23.916Z,21.36196
2022-09-07T13:31:25.182Z,21.22257
2022-09-07T13:36:26.345Z,21.25401
2022-09-07T13:41:29.658Z,21.46163
2022-09-07T13:46:32.536Z,21.28215
2022-09-07T13:51:34.558Z,21.21772
2022-09-07T13:56:35.609Z,20.6031
2022-09-07T14:01:36.776Z,20.15736
2022-09-07T14:06:37.896Z,19.72727
2022-09-07T14:11:38.985Z,19.7542
2022-09-07T14:16:40.180Z,19.90398
2022-09-07T14:21:41.267Z,19.78617
2022-09-07T14:26:42.480Z,19.75965
2022-09-07T14:31:43.518Z,19.91958
2022-09-07T14:36:45.984Z,20.00772
2022-09-07T14:41:47.357Z,20.21161
2022-09-07T14:46:53.104Z,19.89784
2022-09-07T14:51:56.491Z,20.04134
2022-09-07T14:56:57.389Z,20.11147
2022-09-07T15:01:58.458Z,20.32208
2022-09-07T15:07:01.243Z,20.20665
2022-09-07T15:12:02.909Z,19.91457
2022-09-07T15:27:35.594Z,19.6102
2022-09-07T15:32:36.660Z,19.55661
2022-09-07T15:38:03.198Z,19.54601
2022-09-07T15:43:19.564Z,19.52156
2022-09-07T15:48:21.568Z,19.6324
2022-09-07T15:58:53.730Z,19.94406
2022-09-07T16:03:54.827Z,20.0497
2022-09-07T16:08:56.209Z,20.16562
2022-09-07T16:13:57.359Z,20.4185
2022-09-07T16:19:01.878Z,20.60729
2022-09-07T16:24:03.455Z,20.77692
2022-09-07T16:29:04.492Z,20.92251
2022-09-07T16:34:05.584Z,21.12063
2022-09-07T16:39:06.655Z,21.35021
2022-09-07T16:44:07.685Z,21.74964
2022-09-07T16:49:08.796Z,22.26912
2022-09-07T16:54:09.792Z,22.42039
2022-09-07T16:59:10.726Z,22.44978
2022-09-07T17:04:11.970Z,22.36601
2022-09-07T17:09:13.008Z,22.59773
2022-09-07T17:14:14.033Z,22.58722
2022-09-07T17:19:30.607Z,23.10593
2022-09-07T17:24:32.388Z,24.16615
2022-09-07T17:29:33.925Z,26.84262
2022-09-07T17:34:37.833Z,28.55839
2022-09-07T17:39:39.464Z,29.42853
2022-09-07T17:44:40.440Z,30.12082
2022-09-07T17:49:41.424Z,30.68704
2022-09-07T17:54:42.610Z,30.77355
2022-09-07T18:00:11.660Z,31.16035
2022-09-07T18:05:13.109Z,31.68155
2022-09-07T18:10:14.153Z,32.01144
2022-09-07T18:15:16.128Z,32.47902
2022-09-07T18:20:19.014Z,32.8995
2022-09-07T18:25:20.031Z,33.36612
2022-09-07T18:30:20.929Z,33.67021
2022-09-07T18:35:22.409Z,33.86755
2022-09-07T18:40:23.562Z,34.01307
2022-09-07T18:45:28.430Z,34.37574
2022-09-07T18:50:29.673Z,34.28958
2022-09-07T18:55:30.567Z,34.54492
2022-09-07T19:05:52.798Z,34.50325
2022-09-07T19:11:02.277Z,34.74842
2022-09-07T19:16:03.314Z,35.30007
2022-09-07T19:21:04.325Z,35.59704
2022-09-07T19:26:05.499Z,35.82678
2022-09-07T19:31:07.877Z,35.86256
2022-09-07T19:36:08.908Z,36.0677
2022-09-07T19:41:09.963Z,36.20024
2022-09-07T19:46:10.928Z,36.29075
2022-09-07T19:51:11.941Z,36.388
2022-09-07T19:56:13.045Z,36.45486
2022-09-07T20:01:14.461Z,36.59431
2022-09-07T20:06:15.988Z,36.61907
2022-09-07T20:11:17.454Z,36.73365
2022-09-07T20:16:18.515Z,36.64342
2022-09-07T20:21:19.559Z,36.66872
2022-09-07T20:26:20.587Z,36.82682
2022-09-07T20:31:21.634Z,36.9604
2022-09-07T20:36:23.567Z,37.02715
2022-09-07T20:41:24.769Z,36.89489
2022-09-07T20:46:26.055Z,36.78796
2022-09-07T20:51:27.196Z,36.57695
2022-09-07T20:56:28.175Z,36.69917
2022-09-07T21:01:29.551Z,36.7657
2022-09-07T21:06:32.943Z,36.6455
2022-09-07T21:11:34.720Z,36.43953
2022-09-07T21:16:35.854Z,36.55516
2022-09-07T21:21:38.952Z,36.71274
2022-09-07T21:26:40.568Z,36.75625
2022-09-07T21:31:41.670Z,36.81725
2022-09-07T21:36:42.647Z,36.92643
2022-09-07T21:41:43.649Z,36.92096
2022-09-07T21:46:45.665Z,36.81948
2022-09-07T21:51:46.736Z,36.67065
2022-09-07T21:56:47.962Z,36.64106
2022-09-07T22:01:49.451Z,36.55169
2022-09-07T22:06:56.510Z,36.57651
2022-09-07T22:11:57.602Z,36.51705
2022-09-07T22:16:58.796Z,36.45177
2022-09-07T22:21:59.946Z,36.39349
2022-09-07T22:27:01.167Z,36.40749
2022-09-07T22:32:02.507Z,35.9123
2022-09-07T22:37:03.568Z,35.93851
2022-09-07T22:42:04.575Z,35.97697
2022-09-07T22:47:05.593Z,36.09815
2022-09-07T22:52:06.756Z,36.23195
2022-09-07T22:57:07.719Z,36.2445
2022-09-07T23:02:08.710Z,36.30501
2022-09-07T23:07:09.883Z,36.25809
2022-09-07T23:12:10.825Z,36.28898
2022-09-07T23:17:11.774Z,36.27147
2022-09-07T23:22:12.839Z,36.31973
2022-09-07T23:27:13.759Z,36.29665
2022-09-07T23:32:14.682Z,36.26158
2022-09-07T23:37:15.707Z,36.41106
2022-09-07T23:42:16.754Z,36.26218
2022-09-07T23:47:17.718Z,36.31652
2022-09-07T23:52:18.774Z,36.39466
2022-09-07T23:57:19.740Z,36.37769
